Lydd, United Kingdom
Current Conditions -  °F | °C
As of 11:50 AM on Thursday 30 Oct 2014 (Local Time) from EGMD Reporting Station
Clear Clear  
Wind Chill: 64°   Ceiling: Unl
Heat Index: 64°   Visibility: 6mi
Dew Point: 61°   Wind: 18mph
Humidity: 88%   Direction: 200°SSW
Pressure: 30.12"   Gusts: NA
Location:  50.95°N, 0.91°E
Report Text: EGMD 301150Z 20016KT CAVOK 18/16 Q1020
Loading
Personal Weather Stations






























Interactive Weather Map
Tropical Storm Tracking
New forecast layout! Learn more

10-Day Weather Forecast

Advertisements
Track Severe Weather on mobile